sensor_id;sensor_type;location;lat;lon;timestamp;temperature;humidity
78904;DHT22;68291;49.602;8.722;2023-03-14T00:01:46;13.40;99.90
78904;DHT22;68291;49.602;8.722;2023-03-14T00:04:46;13.40;99.90
78904;DHT22;68291;49.602;8.722;2023-03-14T00:07:19;13.40;99.90
78904;DHT22;68291;49.602;8.722;2023-03-14T00:10:00;13.40;99.90
78904;DHT22;68291;49.602;8.722;2023-03-14T00:12:57;13.40;99.90
78904;DHT22;68291;49.602;8.722;2023-03-14T00:15:39;13.40;99.90
78904;DHT22;68291;49.602;8.722;2023-03-14T00:18:36;13.40;99.90
78904;DHT22;68291;49.602;8.722;2023-03-14T00:21:20;13.40;99.90
78904;DHT22;68291;49.602;8.722;2023-03-14T00:23:57;13.40;99.90
78904;DHT22;68291;49.602;8.722;2023-03-14T00:26:31;13.40;99.90
78904;DHT22;68291;49.602;8.722;2023-03-14T00:29:03;13.40;99.90
78904;DHT22;68291;49.602;8.722;2023-03-14T00:31:57;13.40;99.90
78904;DHT22;68291;49.602;8.722;2023-03-14T00:34:50;13.40;99.90
78904;DHT22;68291;49.602;8.722;2023-03-14T00:37:44;13.30;99.90
78904;DHT22;68291;49.602;8.722;2023-03-14T00:40:20;13.40;99.90
78904;DHT22;68291;49.602;8.722;2023-03-14T00:43:32;13.40;99.90
78904;DHT22;68291;49.602;8.722;2023-03-14T00:46:28;13.40;99.90
78904;DHT22;68291;49.602;8.722;2023-03-14T00:49:13;13.40;99.90
78904;DHT22;68291;49.602;8.722;2023-03-14T00:52:04;13.40;99.90
78904;DHT22;68291;49.602;8.722;2023-03-14T00:54:43;13.40;99.90
78904;DHT22;68291;49.602;8.722;2023-03-14T00:57:15;13.40;99.90
78904;DHT22;68291;49.602;8.722;2023-03-14T00:59:58;13.40;99.90
78904;DHT22;68291;49.602;8.722;2023-03-14T01:02:49;13.40;99.90
78904;DHT22;68291;49.602;8.722;2023-03-14T01:05:40;13.40;99.90
78904;DHT22;68291;49.602;8.722;2023-03-14T01:08:25;13.40;99.90
78904;DHT22;68291;49.602;8.722;2023-03-14T01:10:55;13.40;99.90
78904;DHT22;68291;49.602;8.722;2023-03-14T01:13:42;13.50;99.90
78904;DHT22;68291;49.602;8.722;2023-03-14T01:16:32;13.50;99.90
78904;DHT22;68291;49.602;8.722;2023-03-14T01:19:06;13.50;99.90
78904;DHT22;68291;49.602;8.722;2023-03-14T01:21:53;13.50;99.90
78904;DHT22;68291;49.602;8.722;2023-03-14T01:24:37;13.50;99.90
78904;DHT22;68291;49.602;8.722;2023-03-14T01:27:07;13.60;99.90
78904;DHT22;68291;49.602;8.722;2023-03-14T01:29:39;13.60;99.90
78904;DHT22;68291;49.602;8.722;2023-03-14T01:32:11;13.60;99.90
78904;DHT22;68291;49.602;8.722;2023-03-14T01:34:57;13.60;99.90
78904;DHT22;68291;49.602;8.722;2023-03-14T01:37:33;13.60;99.90
78904;DHT22;68291;49.602;8.722;2023-03-14T01:40:20;13.60;99.90
78904;DHT22;68291;49.602;8.722;2023-03-14T01:43:14;13.60;99.90
78904;DHT22;68291;49.602;8.722;2023-03-14T01:46:23;13.60;99.90
78904;DHT22;68291;49.602;8.722;2023-03-14T01:49:33;13.60;99.90
78904;DHT22;68291;49.602;8.722;2023-03-14T01:52:30;13.60;99.90
78904;DHT22;68291;49.602;8.722;2023-03-14T01:55:13;13.70;99.90
78904;DHT22;68291;49.602;8.722;2023-03-14T01:57:59;13.70;99.90
78904;DHT22;68291;49.602;8.722;2023-03-14T02:00:35;13.70;99.90
78904;DHT22;68291;49.602;8.722;2023-03-14T02:03:27;13.70;99.90
78904;DHT22;68291;49.602;8.722;2023-03-14T02:06:13;13.70;99.90
78904;DHT22;68291;49.602;8.722;2023-03-14T02:08:52;13.70;99.90
78904;DHT22;68291;49.602;8.722;2023-03-14T02:11:32;13.70;99.90
78904;DHT22;68291;49.602;8.722;2023-03-14T02:14:47;13.70;99.90
78904;DHT22;68291;49.602;8.722;2023-03-14T02:17:44;13.60;99.90
78904;DHT22;68291;49.602;8.722;2023-03-14T02:20:51;13.70;99.90
78904;DHT22;68291;49.602;8.722;2023-03-14T02:24:01;13.70;99.90
78904;DHT22;68291;49.602;8.722;2023-03-14T02:27:10;13.70;99.90
78904;DHT22;68291;49.602;8.722;2023-03-14T02:30:10;13.70;99.90
78904;DHT22;68291;49.602;8.722;2023-03-14T02:32:47;13.70;99.90
78904;DHT22;68291;49.602;8.722;2023-03-14T02:35:51;13.70;99.90
78904;DHT22;68291;49.602;8.722;2023-03-14T02:38:37;13.70;99.90
78904;DHT22;68291;49.602;8.722;2023-03-14T02:41:16;13.70;99.90
78904;DHT22;68291;49.602;8.722;2023-03-14T02:44:05;13.70;99.90
78904;DHT22;68291;49.602;8.722;2023-03-14T02:46:48;13.70;99.90
78904;DHT22;68291;49.602;8.722;2023-03-14T02:49:32;13.70;99.90
78904;DHT22;68291;49.602;8.722;2023-03-14T02:52:26;13.70;99.90
78904;DHT22;68291;49.602;8.722;2023-03-14T02:55:23;13.70;99.90
78904;DHT22;68291;49.602;8.722;2023-03-14T02:58:15;13.70;99.90
78904;DHT22;68291;49.602;8.722;2023-03-14T03:01:11;13.60;99.90
78904;DHT22;68291;49.602;8.722;2023-03-14T03:03:43;13.60;99.90
78904;DHT22;68291;49.602;8.722;2023-03-14T03:06:31;13.60;99.90
78904;DHT22;68291;49.602;8.722;2023-03-14T03:09:04;13.60;99.90
78904;DHT22;68291;49.602;8.722;2023-03-14T03:11:57;13.60;99.90
78904;DHT22;68291;49.602;8.722;2023-03-14T03:14:31;13.60;99.90
78904;DHT22;68291;49.602;8.722;2023-03-14T03:17:33;13.60;99.90
78904;DHT22;68291;49.602;8.722;2023-03-14T03:20:21;13.60;99.90
78904;DHT22;68291;49.602;8.722;2023-03-14T03:23:17;13.60;99.90
78904;DHT22;68291;49.602;8.722;2023-03-14T03:26:10;13.50;99.90
78904;DHT22;68291;49.602;8.722;2023-03-14T03:28:55;13.40;99.90
78904;DHT22;68291;49.602;8.722;2023-03-14T03:31:31;13.50;99.90
78904;DHT22;68291;49.602;8.722;2023-03-14T03:34:05;13.40;99.90
78904;DHT22;68291;49.602;8.722;2023-03-14T03:36:48;13.40;99.90
78904;DHT22;68291;49.602;8.722;2023-03-14T03:39:21;13.40;99.90
78904;DHT22;68291;49.602;8.722;2023-03-14T03:42:08;13.40;99.90
78904;DHT22;68291;49.602;8.722;2023-03-14T03:44:40;13.30;99.90
78904;DHT22;68291;49.602;8.722;2023-03-14T03:47:24;13.30;99.90
78904;DHT22;68291;49.602;8.722;2023-03-14T03:50:10;13.30;99.90
78904;DHT22;68291;49.602;8.722;2023-03-14T03:53:05;13.30;99.90
78904;DHT22;68291;49.602;8.722;2023-03-14T03:55:56;13.20;99.90
78904;DHT22;68291;49.602;8.722;2023-03-14T03:58:36;13.20;99.90
78904;DHT22;68291;49.602;8.722;2023-03-14T04:01:31;13.20;99.90
78904;DHT22;68291;49.602;8.722;2023-03-14T04:04:02;13.20;99.90
78904;DHT22;68291;49.602;8.722;2023-03-14T04:07:01;13.10;99.90
78904;DHT22;68291;49.602;8.722;2023-03-14T04:09:42;13.10;99.90
78904;DHT22;68291;49.602;8.722;2023-03-14T04:12:42;13.10;99.90
78904;DHT22;68291;49.602;8.722;2023-03-14T04:15:33;13.10;99.90
78904;DHT22;68291;49.602;8.722;2023-03-14T04:18:12;13.10;99.90
78904;DHT22;68291;49.602;8.722;2023-03-14T04:20:58;13.00;99.90
78904;DHT22;68291;49.602;8.722;2023-03-14T04:23:55;13.10;99.90
78904;DHT22;68291;49.602;8.722;2023-03-14T04:26:49;13.10;99.90
78904;DHT22;68291;49.602;8.722;2023-03-14T04:29:50;13.10;99.90
78904;DHT22;68291;49.602;8.722;2023-03-14T04:32:33;13.10;99.90
78904;DHT22;68291;49.602;8.722;2023-03-14T04:35:14;13.20;99.90
78904;DHT22;68291;49.602;8.722;2023-03-14T04:37:59;13.20;99.90
78904;DHT22;68291;49.602;8.722;2023-03-14T04:40:36;13.20;99.90
78904;DHT22;68291;49.602;8.722;2023-03-14T04:43:16;13.20;99.90
78904;DHT22;68291;49.602;8.722;2023-03-14T04:46:13;13.20;99.90
78904;DHT22;68291;49.602;8.722;2023-03-14T04:48:54;13.30;99.90
78904;DHT22;68291;49.602;8.722;2023-03-14T04:51:41;13.30;99.90
78904;DHT22;68291;49.602;8.722;2023-03-14T04:54:36;13.30;99.90
78904;DHT22;68291;49.602;8.722;2023-03-14T04:57:57;13.30;99.90
78904;DHT22;68291;49.602;8.722;2023-03-14T05:00:55;13.30;99.90
78904;DHT22;68291;49.602;8.722;2023-03-14T05:03:52;13.40;99.90
78904;DHT22;68291;49.602;8.722;2023-03-14T05:06:47;13.40;99.90
78904;DHT22;68291;49.602;8.722;2023-03-14T05:09:49;13.40;99.90
78904;DHT22;68291;49.602;8.722;2023-03-14T05:12:57;13.40;99.90
78904;DHT22;68291;49.602;8.722;2023-03-14T05:15:49;13.40;99.90
78904;DHT22;68291;49.602;8.722;2023-03-14T05:18:41;13.40;99.90
78904;DHT22;68291;49.602;8.722;2023-03-14T05:21:43;13.40;99.90
78904;DHT22;68291;49.602;8.722;2023-03-14T05:24:37;13.40;99.90
78904;DHT22;68291;49.602;8.722;2023-03-14T05:27:19;13.40;99.90
78904;DHT22;68291;49.602;8.722;2023-03-14T05:30:26;13.40;99.90
78904;DHT22;68291;49.602;8.722;2023-03-14T05:33:45;13.40;99.90
78904;DHT22;68291;49.602;8.722;2023-03-14T05:36:42;13.40;99.90
78904;DHT22;68291;49.602;8.722;2023-03-14T05:39:49;13.40;99.90
78904;DHT22;68291;49.602;8.722;2023-03-14T05:42:40;13.40;99.90
78904;DHT22;68291;49.602;8.722;2023-03-14T05:45:25;13.40;99.90
78904;DHT22;68291;49.602;8.722;2023-03-14T05:48:26;13.40;99.90
78904;DHT22;68291;49.602;8.722;2023-03-14T05:51:25;13.40;99.90
78904;DHT22;68291;49.602;8.722;2023-03-14T05:54:20;13.40;99.90
78904;DHT22;68291;49.602;8.722;2023-03-14T05:57:39;13.40;99.90
78904;DHT22;68291;49.602;8.722;2023-03-14T06:00:35;13.40;99.90
78904;DHT22;68291;49.602;8.722;2023-03-14T06:03:31;13.30;99.90
78904;DHT22;68291;49.602;8.722;2023-03-14T06:06:22;13.40;99.90
78904;DHT22;68291;49.602;8.722;2023-03-14T06:08:53;13.40;99.90
78904;DHT22;68291;49.602;8.722;2023-03-14T06:11:29;13.40;99.90
78904;DHT22;68291;49.602;8.722;2023-03-14T06:14:03;13.30;99.90
78904;DHT22;68291;49.602;8.722;2023-03-14T06:16:55;13.30;99.90
78904;DHT22;68291;49.602;8.722;2023-03-14T06:19:45;13.30;99.90
78904;DHT22;68291;49.602;8.722;2023-03-14T06:22:31;13.30;99.90
78904;DHT22;68291;49.602;8.722;2023-03-14T06:25:07;13.30;99.90
78904;DHT22;68291;49.602;8.722;2023-03-14T06:27:51;13.30;99.90
78904;DHT22;68291;49.602;8.722;2023-03-14T06:30:24;13.30;99.90
78904;DHT22;68291;49.602;8.722;2023-03-14T06:33:24;13.30;99.90
78904;DHT22;68291;49.602;8.722;2023-03-14T06:36:07;13.40;99.90
78904;DHT22;68291;49.602;8.722;2023-03-14T06:38:52;13.40;99.90
78904;DHT22;68291;49.602;8.722;2023-03-14T06:41:39;13.40;99.90
78904;DHT22;68291;49.602;8.722;2023-03-14T06:44:41;13.40;99.90
78904;DHT22;68291;49.602;8.722;2023-03-14T06:47:13;13.50;99.90
78904;DHT22;68291;49.602;8.722;2023-03-14T06:50:08;13.50;99.90
78904;DHT22;68291;49.602;8.722;2023-03-14T06:52:47;13.40;99.90
78904;DHT22;68291;49.602;8.722;2023-03-14T06:55:38;13.50;99.90
78904;DHT22;68291;49.602;8.722;2023-03-14T06:58:34;13.50;99.90
78904;DHT22;68291;49.602;8.722;2023-03-14T07:01:21;13.50;99.90
78904;DHT22;68291;49.602;8.722;2023-03-14T07:04:11;13.40;99.90
78904;DHT22;68291;49.602;8.722;2023-03-14T07:07:07;13.40;99.90
78904;DHT22;68291;49.602;8.722;2023-03-14T07:09:47;13.50;99.90
78904;DHT22;68291;49.602;8.722;2023-03-14T07:12:43;13.40;99.90
78904;DHT22;68291;49.602;8.722;2023-03-14T07:15:40;13.40;99.90
78904;DHT22;68291;49.602;8.722;2023-03-14T07:18:15;13.40;99.90
78904;DHT22;68291;49.602;8.722;2023-03-14T07:20:56;13.40;99.90
78904;DHT22;68291;49.602;8.722;2023-03-14T07:23:35;13.30;99.90
78904;DHT22;68291;49.602;8.722;2023-03-14T07:26:22;13.30;99.90
78904;DHT22;68291;49.602;8.722;2023-03-14T07:29:19;13.30;99.90
78904;DHT22;68291;49.602;8.722;2023-03-14T07:31:50;13.30;99.90
78904;DHT22;68291;49.602;8.722;2023-03-14T07:34:38;13.30;99.90
78904;DHT22;68291;49.602;8.722;2023-03-14T07:37:25;13.20;99.90
78904;DHT22;68291;49.602;8.722;2023-03-14T07:40:24;13.30;99.90
78904;DHT22;68291;49.602;8.722;2023-03-14T07:42:58;13.30;99.90
78904;DHT22;68291;49.602;8.722;2023-03-14T07:45:56;13.30;99.90
78904;DHT22;68291;49.602;8.722;2023-03-14T07:48:37;13.40;99.90
78904;DHT22;68291;49.602;8.722;2023-03-14T07:51:32;13.40;99.90
78904;DHT22;68291;49.602;8.722;2023-03-14T07:54:19;13.40;99.90
78904;DHT22;68291;49.602;8.722;2023-03-14T07:57:14;13.50;99.90
78904;DHT22;68291;49.602;8.722;2023-03-14T07:59:45;13.50;99.90
78904;DHT22;68291;49.602;8.722;2023-03-14T08:02:28;13.50;99.90
78904;DHT22;68291;49.602;8.722;2023-03-14T08:05:18;13.60;99.90
78904;DHT22;68291;49.602;8.722;2023-03-14T08:07:51;13.60;99.90
78904;DHT22;68291;49.602;8.722;2023-03-14T08:10:35;13.60;99.90
78904;DHT22;68291;49.602;8.722;2023-03-14T08:16:44;13.70;99.90
78904;DHT22;68291;49.602;8.722;2023-03-14T08:19:29;13.70;99.90
78904;DHT22;68291;49.602;8.722;2023-03-14T08:22:21;13.70;99.90
78904;DHT22;68291;49.602;8.722;2023-03-14T08:25:02;13.70;99.90
78904;DHT22;68291;49.602;8.722;2023-03-14T08:27:58;13.70;99.90
78904;DHT22;68291;49.602;8.722;2023-03-14T08:30:46;13.70;99.90
78904;DHT22;68291;49.602;8.722;2023-03-14T08:33:34;13.80;99.90
78904;DHT22;68291;49.602;8.722;2023-03-14T08:36:24;13.80;99.90
78904;DHT22;68291;49.602;8.722;2023-03-14T08:39:20;13.80;99.90
78904;DHT22;68291;49.602;8.722;2023-03-14T08:41:52;13.80;99.90
78904;DHT22;68291;49.602;8.722;2023-03-14T08:44:25;13.80;99.90
78904;DHT22;68291;49.602;8.722;2023-03-14T08:47:21;13.80;99.90
78904;DHT22;68291;49.602;8.722;2023-03-14T08:50:00;13.80;99.90
78904;DHT22;68291;49.602;8.722;2023-03-14T08:52:43;13.80;99.90
78904;DHT22;68291;49.602;8.722;2023-03-14T08:55:38;13.80;99.90
78904;DHT22;68291;49.602;8.722;2023-03-14T08:58:19;13.80;99.90
78904;DHT22;68291;49.602;8.722;2023-03-14T09:00:54;13.90;99.90
78904;DHT22;68291;49.602;8.722;2023-03-14T09:03:34;14.00;99.90
78904;DHT22;68291;49.602;8.722;2023-03-14T09:06:20;14.00;99.90
78904;DHT22;68291;49.602;8.722;2023-03-14T09:08:54;14.10;99.90
78904;DHT22;68291;49.602;8.722;2023-03-14T09:11:50;14.10;99.90
78904;DHT22;68291;49.602;8.722;2023-03-14T09:14:38;14.20;99.90
78904;DHT22;68291;49.602;8.722;2023-03-14T09:17:18;14.20;99.90
78904;DHT22;68291;49.602;8.722;2023-03-14T09:19:58;14.30;99.90
78904;DHT22;68291;49.602;8.722;2023-03-14T09:22:44;14.40;99.90
78904;DHT22;68291;49.602;8.722;2023-03-14T09:25:15;14.40;99.90
78904;DHT22;68291;49.602;8.722;2023-03-14T09:28:11;14.40;99.90
78904;DHT22;68291;49.602;8.722;2023-03-14T09:30:55;14.40;99.90
78904;DHT22;68291;49.602;8.722;2023-03-14T09:33:32;14.40;99.90
78904;DHT22;68291;49.602;8.722;2023-03-14T09:36:30;14.50;99.90
78904;DHT22;68291;49.602;8.722;2023-03-14T09:39:20;14.50;99.90
78904;DHT22;68291;49.602;8.722;2023-03-14T09:42:25;14.50;99.90
78904;DHT22;68291;49.602;8.722;2023-03-14T09:45:00;14.50;99.90
78904;DHT22;68291;49.602;8.722;2023-03-14T09:47:35;14.60;99.90
78904;DHT22;68291;49.602;8.722;2023-03-14T09:50:39;14.50;99.90
78904;DHT22;68291;49.602;8.722;2023-03-14T09:53:52;14.50;99.90
78904;DHT22;68291;49.602;8.722;2023-03-14T09:56:36;14.50;99.90
78904;DHT22;68291;49.602;8.722;2023-03-14T09:59:39;14.50;99.90
78904;DHT22;68291;49.602;8.722;2023-03-14T10:02:33;14.50;99.90
78904;DHT22;68291;49.602;8.722;2023-03-14T10:05:15;14.50;99.90
78904;DHT22;68291;49.602;8.722;2023-03-14T10:07:49;14.50;99.90
78904;DHT22;68291;49.602;8.722;2023-03-14T10:10:32;14.50;99.90
78904;DHT22;68291;49.602;8.722;2023-03-14T10:13:14;14.50;99.90
78904;DHT22;68291;49.602;8.722;2023-03-14T10:16:06;14.50;99.90
78904;DHT22;68291;49.602;8.722;2023-03-14T10:19:02;14.50;99.90
78904;DHT22;68291;49.602;8.722;2023-03-14T10:21:53;14.50;99.90
78904;DHT22;68291;49.602;8.722;2023-03-14T10:24:45;14.50;99.90
78904;DHT22;68291;49.602;8.722;2023-03-14T10:27:41;14.50;99.90
78904;DHT22;68291;49.602;8.722;2023-03-14T10:30:45;14.50;99.90
78904;DHT22;68291;49.602;8.722;2023-03-14T10:33:33;14.40;99.90
78904;DHT22;68291;49.602;8.722;2023-03-14T10:36:29;14.40;99.90
78904;DHT22;68291;49.602;8.722;2023-03-14T10:39:28;14.30;99.90
78904;DHT22;68291;49.602;8.722;2023-03-14T10:42:32;14.30;99.90
78904;DHT22;68291;49.602;8.722;2023-03-14T10:45:40;14.20;99.90
78904;DHT22;68291;49.602;8.722;2023-03-14T10:48:40;14.10;99.90
78904;DHT22;68291;49.602;8.722;2023-03-14T10:51:40;14.00;99.90
78904;DHT22;68291;49.602;8.722;2023-03-14T10:54:30;13.90;99.90
78904;DHT22;68291;49.602;8.722;2023-03-14T10:57:07;13.90;99.90
78904;DHT22;68291;49.602;8.722;2023-03-14T10:59:48;13.80;99.90
78904;DHT22;68291;49.602;8.722;2023-03-14T11:03:03;13.80;99.90
78904;DHT22;68291;49.602;8.722;2023-03-14T11:06:16;13.80;99.90
78904;DHT22;68291;49.602;8.722;2023-03-14T11:09:07;13.70;99.90
78904;DHT22;68291;49.602;8.722;2023-03-14T11:12:23;13.70;99.90
78904;DHT22;68291;49.602;8.722;2023-03-14T11:15:30;13.60;99.90
78904;DHT22;68291;49.602;8.722;2023-03-14T11:18:55;13.60;99.90
78904;DHT22;68291;49.602;8.722;2023-03-14T11:21:54;13.50;99.90
78904;DHT22;68291;49.602;8.722;2023-03-14T11:24:58;13.40;99.90
78904;DHT22;68291;49.602;8.722;2023-03-14T11:28:05;13.30;99.90
78904;DHT22;68291;49.602;8.722;2023-03-14T11:30:54;13.30;99.90
78904;DHT22;68291;49.602;8.722;2023-03-14T11:33:37;13.20;99.90
78904;DHT22;68291;49.602;8.722;2023-03-14T11:36:33;13.10;99.90
78904;DHT22;68291;49.602;8.722;2023-03-14T11:39:15;13.10;99.90
78904;DHT22;68291;49.602;8.722;2023-03-14T11:42:11;13.10;99.90
78904;DHT22;68291;49.602;8.722;2023-03-14T11:45:04;13.00;99.90
78904;DHT22;68291;49.602;8.722;2023-03-14T11:47:45;13.00;99.90
78904;DHT22;68291;49.602;8.722;2023-03-14T11:50:25;12.90;99.90
78904;DHT22;68291;49.602;8.722;2023-03-14T11:56:18;12.90;99.90
78904;DHT22;68291;49.602;8.722;2023-03-14T11:59:16;12.90;99.90
78904;DHT22;68291;49.602;8.722;2023-03-14T12:02:13;12.90;99.90
78904;DHT22;68291;49.602;8.722;2023-03-14T12:05:40;12.90;99.90
78904;DHT22;68291;49.602;8.722;2023-03-14T12:08:52;12.80;99.90
78904;DHT22;68291;49.602;8.722;2023-03-14T12:11:37;12.80;99.90
78904;DHT22;68291;49.602;8.722;2023-03-14T12:14:32;12.80;99.90
78904;DHT22;68291;49.602;8.722;2023-03-14T12:17:24;12.80;99.90
78904;DHT22;68291;49.602;8.722;2023-03-14T12:20:12;12.80;99.90
78904;DHT22;68291;49.602;8.722;2023-03-14T12:22:48;12.80;99.90
78904;DHT22;68291;49.602;8.722;2023-03-14T12:29:32;12.80;99.90
78904;DHT22;68291;49.602;8.722;2023-03-14T12:32:24;12.70;99.90
78904;DHT22;68291;49.602;8.722;2023-03-14T12:35:36;12.60;99.90
78904;DHT22;68291;49.602;8.722;2023-03-14T12:38:27;12.50;99.90
78904;DHT22;68291;49.602;8.722;2023-03-14T12:41:16;12.40;99.90
78904;DHT22;68291;49.602;8.722;2023-03-14T12:51:00;12.20;99.90
78904;DHT22;68291;49.602;8.722;2023-03-14T12:54:11;12.20;99.90
78904;DHT22;68291;49.602;8.722;2023-03-14T12:57:06;12.20;99.90
78904;DHT22;68291;49.602;8.722;2023-03-14T13:00:00;12.20;99.90
78904;DHT22;68291;49.602;8.722;2023-03-14T13:02:52;12.20;99.90
78904;DHT22;68291;49.602;8.722;2023-03-14T13:05:32;12.30;99.90
78904;DHT22;68291;49.602;8.722;2023-03-14T13:08:11;12.30;99.90
78904;DHT22;68291;49.602;8.722;2023-03-14T13:10:59;12.30;99.90
78904;DHT22;68291;49.602;8.722;2023-03-14T13:14:00;12.30;99.90
78904;DHT22;68291;49.602;8.722;2023-03-14T13:16:37;12.30;99.90
78904;DHT22;68291;49.602;8.722;2023-03-14T13:19:30;12.30;99.90
78904;DHT22;68291;49.602;8.722;2023-03-14T13:22:12;12.30;99.90
78904;DHT22;68291;49.602;8.722;2023-03-14T13:25:01;12.30;99.90
78904;DHT22;68291;49.602;8.722;2023-03-14T13:27:41;12.30;99.90
78904;DHT22;68291;49.602;8.722;2023-03-14T13:34:00;12.30;99.90
78904;DHT22;68291;49.602;8.722;2023-03-14T13:36:35;12.20;99.90
78904;DHT22;68291;49.602;8.722;2023-03-14T13:39:32;12.20;99.90
78904;DHT22;68291;49.602;8.722;2023-03-14T13:42:17;12.20;99.90
78904;DHT22;68291;49.602;8.722;2023-03-14T13:45:09;12.30;99.90
78904;DHT22;68291;49.602;8.722;2023-03-14T13:48:13;12.30;99.90
78904;DHT22;68291;49.602;8.722;2023-03-14T13:51:03;12.20;99.90
78904;DHT22;68291;49.602;8.722;2023-03-14T13:53:54;12.20;99.90
78904;DHT22;68291;49.602;8.722;2023-03-14T13:56:33;12.20;99.90
78904;DHT22;68291;49.602;8.722;2023-03-14T13:59:22;12.10;99.90
78904;DHT22;68291;49.602;8.722;2023-03-14T14:02:13;12.00;99.90
78904;DHT22;68291;49.602;8.722;2023-03-14T14:05:12;11.90;99.90
78904;DHT22;68291;49.602;8.722;2023-03-14T14:08:03;11.80;99.90
78904;DHT22;68291;49.602;8.722;2023-03-14T14:10:37;11.60;99.90
78904;DHT22;68291;49.602;8.722;2023-03-14T14:13:22;11.30;99.90
78904;DHT22;68291;49.602;8.722;2023-03-14T14:16:07;11.20;99.90
78904;DHT22;68291;49.602;8.722;2023-03-14T14:18:42;11.00;99.90
78904;DHT22;68291;49.602;8.722;2023-03-14T14:21:22;10.90;99.90
78904;DHT22;68291;49.602;8.722;2023-03-14T14:24:19;10.90;99.90
78904;DHT22;68291;49.602;8.722;2023-03-14T14:27:15;10.90;99.90
78904;DHT22;68291;49.602;8.722;2023-03-14T14:29:59;10.90;99.90
78904;DHT22;68291;49.602;8.722;2023-03-14T14:32:50;11.10;99.90
78904;DHT22;68291;49.602;8.722;2023-03-14T14:35:37;11.30;99.90
78904;DHT22;68291;49.602;8.722;2023-03-14T14:38:18;11.50;99.90
78904;DHT22;68291;49.602;8.722;2023-03-14T14:41:13;11.60;99.90
78904;DHT22;68291;49.602;8.722;2023-03-14T14:43:56;11.70;99.90
78904;DHT22;68291;49.602;8.722;2023-03-14T14:46:40;11.70;99.90
78904;DHT22;68291;49.602;8.722;2023-03-14T14:49:30;11.70;99.90
78904;DHT22;68291;49.602;8.722;2023-03-14T14:52:20;11.80;99.90
78904;DHT22;68291;49.602;8.722;2023-03-14T14:55:31;11.80;99.90
78904;DHT22;68291;49.602;8.722;2023-03-14T14:58:20;11.90;99.90
78904;DHT22;68291;49.602;8.722;2023-03-14T15:01:16;11.90;99.90
78904;DHT22;68291;49.602;8.722;2023-03-14T15:03:58;11.90;99.90
78904;DHT22;68291;49.602;8.722;2023-03-14T15:06:32;11.90;99.90
78904;DHT22;68291;49.602;8.722;2023-03-14T15:09:19;11.90;99.90
78904;DHT22;68291;49.602;8.722;2023-03-14T15:12:00;11.90;99.90
78904;DHT22;68291;49.602;8.722;2023-03-14T15:14:36;11.90;99.90
78904;DHT22;68291;49.602;8.722;2023-03-14T15:17:16;11.90;99.90
78904;DHT22;68291;49.602;8.722;2023-03-14T15:20:01;11.90;99.90
78904;DHT22;68291;49.602;8.722;2023-03-14T15:22:36;11.90;99.90
78904;DHT22;68291;49.602;8.722;2023-03-14T15:25:27;12.10;99.90
78904;DHT22;68291;49.602;8.722;2023-03-14T15:28:40;12.20;99.90
78904;DHT22;68291;49.602;8.722;2023-03-14T15:31:14;12.20;99.90
78904;DHT22;68291;49.602;8.722;2023-03-14T15:33:56;12.20;99.90
78904;DHT22;68291;49.602;8.722;2023-03-14T15:36:28;12.20;99.90
78904;DHT22;68291;49.602;8.722;2023-03-14T15:39:22;12.20;99.90
78904;DHT22;68291;49.602;8.722;2023-03-14T15:42:14;12.20;99.90
78904;DHT22;68291;49.602;8.722;2023-03-14T15:44:52;12.20;99.90
78904;DHT22;68291;49.602;8.722;2023-03-14T15:47:46;12.20;99.90
78904;DHT22;68291;49.602;8.722;2023-03-14T15:50:41;12.10;99.90
78904;DHT22;68291;49.602;8.722;2023-03-14T15:53:51;12.10;99.90
78904;DHT22;68291;49.602;8.722;2023-03-14T15:56:40;12.10;99.90
78904;DHT22;68291;49.602;8.722;2023-03-14T15:59:30;12.10;99.90
78904;DHT22;68291;49.602;8.722;2023-03-14T16:02:10;12.10;99.90
78904;DHT22;68291;49.602;8.722;2023-03-14T16:04:59;12.20;99.90
78904;DHT22;68291;49.602;8.722;2023-03-14T16:07:55;12.30;98.30
78904;DHT22;68291;49.602;8.722;2023-03-14T16:10:36;12.60;98.00
78904;DHT22;68291;49.602;8.722;2023-03-14T16:13:46;13.00;99.90
78904;DHT22;68291;49.602;8.722;2023-03-14T16:16:33;13.80;99.20
78904;DHT22;68291;49.602;8.722;2023-03-14T16:19:20;14.30;97.40
78904;DHT22;68291;49.602;8.722;2023-03-14T16:21:57;14.70;98.70
78904;DHT22;68291;49.602;8.722;2023-03-14T16:24:37;15.10;98.80
78904;DHT22;68291;49.602;8.722;2023-03-14T16:27:20;15.60;99.30
78904;DHT22;68291;49.602;8.722;2023-03-14T16:30:45;16.10;98.70
78904;DHT22;68291;49.602;8.722;2023-03-14T16:33:25;16.60;99.80
78904;DHT22;68291;49.602;8.722;2023-03-14T16:36:00;17.00;99.70
78904;DHT22;68291;49.602;8.722;2023-03-14T16:38:46;17.30;97.50
78904;DHT22;68291;49.602;8.722;2023-03-14T16:41:37;17.50;97.80
78904;DHT22;68291;49.602;8.722;2023-03-14T16:44:23;17.50;95.30
78904;DHT22;68291;49.602;8.722;2023-03-14T16:47:14;17.20;96.20
78904;DHT22;68291;49.602;8.722;2023-03-14T16:49:54;16.80;97.00
78904;DHT22;68291;49.602;8.722;2023-03-14T16:52:37;16.40;96.60
78904;DHT22;68291;49.602;8.722;2023-03-14T16:55:34;16.00;96.70
78904;DHT22;68291;49.602;8.722;2023-03-14T16:58:25;15.60;96.80
78904;DHT22;68291;49.602;8.722;2023-03-14T17:01:16;15.10;97.30
78904;DHT22;68291;49.602;8.722;2023-03-14T17:04:01;14.80;97.50
78904;DHT22;68291;49.602;8.722;2023-03-14T17:06:48;14.40;98.30
78904;DHT22;68291;49.602;8.722;2023-03-14T17:09:57;14.20;98.40
78904;DHT22;68291;49.602;8.722;2023-03-14T17:12:34;13.90;96.50
78904;DHT22;68291;49.602;8.722;2023-03-14T17:15:21;13.60;98.40
78904;DHT22;68291;49.602;8.722;2023-03-14T17:17:53;13.40;98.70
78904;DHT22;68291;49.602;8.722;2023-03-14T17:20:50;13.20;99.10
78904;DHT22;68291;49.602;8.722;2023-03-14T17:23:33;13.10;99.40
78904;DHT22;68291;49.602;8.722;2023-03-14T17:26:39;12.90;99.40
78904;DHT22;68291;49.602;8.722;2023-03-14T17:29:27;12.80;99.60
78904;DHT22;68291;49.602;8.722;2023-03-14T17:32:14;12.60;99.80
78904;DHT22;68291;49.602;8.722;2023-03-14T17:34:50;12.50;99.90
78904;DHT22;68291;49.602;8.722;2023-03-14T17:37:26;12.40;99.90
78904;DHT22;68291;49.602;8.722;2023-03-14T17:40:20;12.30;99.90
78904;DHT22;68291;49.602;8.722;2023-03-14T17:43:20;12.30;99.90
78904;DHT22;68291;49.602;8.722;2023-03-14T17:46:01;12.20;99.90
78904;DHT22;68291;49.602;8.722;2023-03-14T17:48:45;12.10;99.90
78904;DHT22;68291;49.602;8.722;2023-03-14T17:51:39;12.00;99.90
78904;DHT22;68291;49.602;8.722;2023-03-14T17:54:38;12.00;99.90
78904;DHT22;68291;49.602;8.722;2023-03-14T17:57:22;11.90;99.90
78904;DHT22;68291;49.602;8.722;2023-03-14T18:00:27;11.90;99.90
78904;DHT22;68291;49.602;8.722;2023-03-14T18:03:09;11.80;99.90
78904;DHT22;68291;49.602;8.722;2023-03-14T18:06:04;11.70;99.90
78904;DHT22;68291;49.602;8.722;2023-03-14T18:08:39;11.60;99.90